Time;durP1;ratioP1;P1;durP2;ratioP2;P2;SDS_P1;SDS_P2;PMS_P1;PMS_P2;Temp;Humidity;BMP_temperature;BMP_pressure;BME280_temperature;BME280_humidity;BME280_pressure;Samples;Min_cycle;Max_cycle;Signal;HPM_P1;HPM_P2
2023/08/16 00:01:47;;;;;;;7.80;4.40;;;;;;;;;;5031542;28;20498;-72
2023/08/16 00:04:12;;;;;;;6.80;4.10;;;;;;;;;;5011230;28;20333;-72
2023/08/16 00:06:41;;;;;;;5.53;3.90;;;;;;;;;;5015574;28;20186;-72
2023/08/16 00:09:07;;;;;;;6.18;3.78;;;;;;;;;;5016055;28;20652;-72
2023/08/16 00:11:32;;;;;;;8.05;3.88;;;;;;;;;;5021318;28;20206;-72
2023/08/16 00:13:57;;;;;;;7.22;3.95;;;;;;;;;;5013344;28;20653;-72
2023/08/16 00:16:23;;;;;;;11.15;4.30;;;;;;;;;;5020687;28;20200;-72
2023/08/16 00:18:48;;;;;;;9.25;4.50;;;;;;;;;;5030981;28;20712;-72
2023/08/16 00:21:14;;;;;;;10.85;4.32;;;;;;;;;;5016780;28;20170;-72
2023/08/16 00:23:40;;;;;;;5.82;3.95;;;;;;;;;;5028722;28;20256;-73
2023/08/16 00:26:05;;;;;;;8.93;4.40;;;;;;;;;;5031085;28;20197;-72
2023/08/16 00:28:30;;;;;;;11.80;4.93;;;;;;;;;;5028930;28;20198;-72
2023/08/16 00:30:56;;;;;;;8.05;5.53;;;;;;;;;;5038464;28;20493;-72
2023/08/16 00:33:21;;;;;;;7.20;4.68;;;;;;;;;;5022030;28;20210;-72
2023/08/16 00:35:48;;;;;;;6.43;4.60;;;;;;;;;;5030343;28;20657;-73
2023/08/16 00:38:14;;;;;;;7.57;5.10;;;;;;;;;;5022909;28;20586;-72
2023/08/16 00:40:39;;;;;;;7.72;4.78;;;;;;;;;;5026484;28;20178;-72
2023/08/16 00:43:05;;;;;;;8.77;5.10;;;;;;;;;;5029796;28;20242;-72
2023/08/16 00:45:30;;;;;;;7.18;4.72;;;;;;;;;;5019841;28;20533;-72
2023/08/16 00:47:56;;;;;;;8.93;4.47;;;;;;;;;;5028594;28;20194;-72
2023/08/16 00:50:24;;;;;;;9.10;4.97;;;;;;;;;;5030759;28;20277;-72
2023/08/16 00:52:51;;;;;;;6.28;5.05;;;;;;;;;;5027447;28;20186;-72
2023/08/16 00:55:17;;;;;;;7.20;5.43;;;;;;;;;;5029008;28;20222;-72
2023/08/16 00:57:42;;;;;;;9.52;6.40;;;;;;;;;;5026463;28;20194;-72
2023/08/16 01:00:08;;;;;;;11.70;5.72;;;;;;;;;;5032044;28;20706;-72
2023/08/16 01:02:34;;;;;;;9.68;6.25;;;;;;;;;;5028533;28;20194;-72
2023/08/16 01:04:59;;;;;;;7.43;5.70;;;;;;;;;;5029643;28;20653;-72
2023/08/16 01:07:25;;;;;;;6.82;5.30;;;;;;;;;;5030390;28;20252;-72
2023/08/16 01:09:50;;;;;;;9.02;5.78;;;;;;;;;;5030340;28;20193;-72
2023/08/16 01:12:46;;;;;;;10.00;5.70;;;;;;;;;;5027810;28;20260;-72
2023/08/16 01:15:25;;;;;;;8.93;5.63;;;;;;;;;;5028187;28;20240;-72
2023/08/16 01:17:52;;;;;;;8.20;6.60;;;;;;;;;;5028367;28;20219;-72
2023/08/16 01:20:19;;;;;;;7.95;6.30;;;;;;;;;;5029949;28;20620;-72
2023/08/16 01:22:57;;;;;;;8.45;6.30;;;;;;;;;;5029494;28;20324;-72
2023/08/16 01:25:41;;;;;;;9.00;6.60;;;;;;;;;;5029742;28;20189;-72
2023/08/16 01:28:07;;;;;;;8.77;6.28;;;;;;;;;;5029314;28;20190;-73
2023/08/16 01:30:33;;;;;;;13.65;6.47;;;;;;;;;;5036011;28;20608;-73
2023/08/16 01:33:10;;;;;;;8.95;6.50;;;;;;;;;;5029307;28;20430;-72
2023/08/16 01:35:36;;;;;;;9.77;6.65;;;;;;;;;;5030324;28;20213;-73
2023/08/16 01:38:03;;;;;;;7.45;5.78;;;;;;;;;;5022103;28;20199;-73
2023/08/16 01:40:44;;;;;;;10.88;6.10;;;;;;;;;;5018030;28;20573;-72
2023/08/16 01:43:13;;;;;;;11.38;6.40;;;;;;;;;;5009783;28;20225;-72
2023/08/16 01:45:38;;;;;;;7.70;6.30;;;;;;;;;;5022632;28;20190;-72
2023/08/16 01:48:04;;;;;;;9.75;6.80;;;;;;;;;;5027931;28;20185;-73
2023/08/16 01:50:30;;;;;;;11.95;6.95;;;;;;;;;;5028308;28;20320;-73
2023/08/16 01:52:55;;;;;;;10.52;7.10;;;;;;;;;;5027810;28;20192;-72
2023/08/16 01:55:21;;;;;;;9.90;6.30;;;;;;;;;;5026840;28;20667;-72
2023/08/16 01:57:46;;;;;;;9.80;6.50;;;;;;;;;;5031667;28;20190;-72
2023/08/16 02:00:12;;;;;;;9.30;6.95;;;;;;;;;;5020667;28;20253;-73
2023/08/16 02:02:38;;;;;;;10.13;6.30;;;;;;;;;;5029004;28;20190;-73
2023/08/16 02:05:04;;;;;;;10.95;6.80;;;;;;;;;;5028164;28;20562;-73
2023/08/16 02:07:29;;;;;;;9.07;6.53;;;;;;;;;;5028065;28;20290;-73
2023/08/16 02:09:54;;;;;;;7.78;6.38;;;;;;;;;;5029107;28;20630;-72
2023/08/16 02:12:20;;;;;;;9.32;6.85;;;;;;;;;;5029331;28;20421;-72
2023/08/16 02:14:45;;;;;;;9.95;6.78;;;;;;;;;;5027950;28;20661;-72
2023/08/16 02:17:11;;;;;;;14.65;6.82;;;;;;;;;;5027596;28;20297;-73
2023/08/16 02:19:36;;;;;;;11.55;6.72;;;;;;;;;;5027233;28;20240;-72
2023/08/16 02:22:01;;;;;;;7.65;6.85;;;;;;;;;;5028720;28;20183;-72
2023/08/16 02:24:27;;;;;;;13.52;7.32;;;;;;;;;;5026246;28;20185;-72
2023/08/16 02:26:52;;;;;;;9.75;6.43;;;;;;;;;;5027467;28;20521;-72
2023/08/16 02:29:18;;;;;;;13.55;6.82;;;;;;;;;;5026509;28;20220;-72
2023/08/16 02:31:43;;;;;;;9.75;6.55;;;;;;;;;;5033355;28;20237;-72
2023/08/16 02:34:08;;;;;;;11.25;6.25;;;;;;;;;;5028463;28;20198;-72
2023/08/16 02:36:34;;;;;;;8.52;6.45;;;;;;;;;;5028303;28;20501;-72
2023/08/16 02:39:00;;;;;;;9.70;7.07;;;;;;;;;;5028285;28;20609;-72
2023/08/16 02:41:25;;;;;;;8.77;6.90;;;;;;;;;;5042676;28;20625;-72
2023/08/16 02:43:51;;;;;;;12.10;6.78;;;;;;;;;;5032786;28;20708;-72
2023/08/16 02:46:16;;;;;;;8.88;6.68;;;;;;;;;;5031183;28;20201;-72
2023/08/16 02:48:41;;;;;;;9.13;6.38;;;;;;;;;;5033193;28;20193;-72
2023/08/16 02:51:07;;;;;;;15.52;7.55;;;;;;;;;;5035679;28;20209;-72
2023/08/16 02:53:32;;;;;;;8.02;6.53;;;;;;;;;;5034686;28;20197;-72
2023/08/16 02:55:58;;;;;;;12.82;7.18;;;;;;;;;;5026353;28;20194;-72
2023/08/16 02:58:23;;;;;;;13.63;8.38;;;;;;;;;;5030739;28;20264;-72
2023/08/16 03:00:52;;;;;;;10.63;7.93;;;;;;;;;;5032825;28;20186;-72
2023/08/16 03:03:18;;;;;;;11.77;7.22;;;;;;;;;;5031100;28;20285;-72
2023/08/16 03:05:44;;;;;;;9.00;7.38;;;;;;;;;;5021805;28;20261;-72
2023/08/16 03:08:09;;;;;;;11.45;6.78;;;;;;;;;;5031659;28;20204;-72
2023/08/16 03:10:35;;;;;;;9.68;7.85;;;;;;;;;;5033037;28;20218;-72
2023/08/16 03:13:00;;;;;;;10.65;7.70;;;;;;;;;;5031173;28;20201;-72
2023/08/16 03:15:26;;;;;;;10.55;7.60;;;;;;;;;;5018972;28;20194;-72
2023/08/16 03:17:51;;;;;;;14.20;7.60;;;;;;;;;;5031389;28;20305;-72
2023/08/16 03:20:16;;;;;;;11.70;7.18;;;;;;;;;;5018697;28;20206;-72
2023/08/16 03:22:42;;;;;;;9.48;7.85;;;;;;;;;;5032433;28;20218;-72
2023/08/16 03:25:08;;;;;;;12.13;7.03;;;;;;;;;;4999088;28;20586;-72
2023/08/16 03:27:34;;;;;;;10.90;8.02;;;;;;;;;;5012430;28;20245;-72
2023/08/16 03:29:59;;;;;;;13.30;7.20;;;;;;;;;;5029027;28;20206;-72
2023/08/16 03:32:24;;;;;;;12.77;7.43;;;;;;;;;;5022202;28;20209;-72
2023/08/16 03:34:50;;;;;;;15.52;7.93;;;;;;;;;;5024369;28;20197;-72
2023/08/16 03:37:15;;;;;;;11.40;8.73;;;;;;;;;;5017704;28;20267;-72
2023/08/16 03:39:41;;;;;;;12.15;8.60;;;;;;;;;;5020317;28;20191;-72
2023/08/16 03:42:06;;;;;;;13.13;8.35;;;;;;;;;;5027381;28;20212;-72
2023/08/16 03:44:32;;;;;;;14.40;9.13;;;;;;;;;;5031696;28;20233;-72
2023/08/16 03:46:57;;;;;;;14.55;8.60;;;;;;;;;;5026586;28;20665;-73
2023/08/16 03:49:23;;;;;;;13.60;8.77;;;;;;;;;;5032153;28;20197;-72
2023/08/16 03:51:48;;;;;;;11.60;8.20;;;;;;;;;;5025881;28;20288;-72
2023/08/16 03:54:13;;;;;;;15.88;9.55;;;;;;;;;;5029909;28;20733;-72
2023/08/16 03:56:39;;;;;;;15.20;8.98;;;;;;;;;;5031422;28;20224;-72
2023/08/16 03:59:05;;;;;;;15.43;9.18;;;;;;;;;;5027980;28;20221;-72
2023/08/16 04:01:30;;;;;;;13.05;9.20;;;;;;;;;;5029663;28;20213;-73
2023/08/16 04:03:56;;;;;;;15.15;9.25;;;;;;;;;;5030970;28;20224;-72
2023/08/16 04:06:21;;;;;;;13.63;8.68;;;;;;;;;;5030971;28;20212;-72
2023/08/16 04:08:47;;;;;;;21.80;9.63;;;;;;;;;;5031249;28;20252;-72
2023/08/16 04:11:12;;;;;;;13.45;9.40;;;;;;;;;;5030809;28;20297;-72
2023/08/16 04:13:37;;;;;;;12.00;8.82;;;;;;;;;;5009896;28;20241;-72
2023/08/16 04:16:03;;;;;;;19.20;9.38;;;;;;;;;;5020151;28;20672;-72
2023/08/16 04:18:29;;;;;;;15.70;9.70;;;;;;;;;;5029071;28;20255;-72
2023/08/16 04:20:55;;;;;;;16.52;9.68;;;;;;;;;;5029868;28;20546;-73
2023/08/16 04:23:21;;;;;;;17.17;9.48;;;;;;;;;;5031207;28;20190;-72
2023/08/16 04:25:47;;;;;;;12.55;9.52;;;;;;;;;;5019606;28;20685;-72
2023/08/16 04:28:12;;;;;;;18.20;9.40;;;;;;;;;;5030978;28;20225;-72
2023/08/16 04:30:38;;;;;;;14.38;9.40;;;;;;;;;;5028469;28;20215;-72
2023/08/16 04:33:03;;;;;;;17.40;9.32;;;;;;;;;;5030545;28;20622;-73
2023/08/16 04:35:28;;;;;;;12.10;8.48;;;;;;;;;;5019100;28;20209;-72
2023/08/16 04:37:54;;;;;;;19.35;9.98;;;;;;;;;;5021824;28;20187;-72
2023/08/16 04:40:19;;;;;;;11.75;8.88;;;;;;;;;;5021918;28;20221;-72
2023/08/16 04:42:45;;;;;;;18.60;9.63;;;;;;;;;;5016812;28;20442;-72
2023/08/16 04:45:10;;;;;;;12.32;9.60;;;;;;;;;;5006803;28;20198;-72
2023/08/16 04:47:36;;;;;;;15.45;10.05;;;;;;;;;;5020940;28;20197;-72
2023/08/16 04:50:06;;;;;;;12.38;8.88;;;;;;;;;;5028943;28;20197;-72
2023/08/16 04:52:32;;;;;;;14.38;8.90;;;;;;;;;;5030181;28;20228;-72
2023/08/16 04:54:58;;;;;;;15.02;10.00;;;;;;;;;;5027529;28;20210;-72
2023/08/16 04:57:24;;;;;;;16.60;9.65;;;;;;;;;;5029122;28;20186;-72
2023/08/16 04:59:50;;;;;;;13.38;9.27;;;;;;;;;;5026494;28;20331;-72
2023/08/16 05:02:15;;;;;;;11.45;9.00;;;;;;;;;;5030008;28;20225;-72
2023/08/16 05:04:41;;;;;;;14.00;8.70;;;;;;;;;;5026854;28;20202;-72
2023/08/16 05:07:06;;;;;;;14.82;9.13;;;;;;;;;;5018138;28;20179;-72
2023/08/16 05:09:31;;;;;;;15.50;10.25;;;;;;;;;;5026704;28;20187;-72
2023/08/16 05:11:57;;;;;;;14.55;9.50;;;;;;;;;;5029706;28;20210;-72
2023/08/16 05:14:23;;;;;;;13.70;10.00;;;;;;;;;;5028622;28;20220;-72
2023/08/16 05:16:48;;;;;;;16.67;9.27;;;;;;;;;;5029192;28;20194;-72
2023/08/16 05:19:14;;;;;;;15.55;10.25;;;;;;;;;;5028132;28;20574;-72
2023/08/16 05:21:39;;;;;;;15.27;10.45;;;;;;;;;;5026393;28;20324;-72
2023/08/16 05:24:05;;;;;;;18.33;10.80;;;;;;;;;;5022511;28;20746;-73
2023/08/16 05:26:31;;;;;;;16.80;10.52;;;;;;;;;;5009886;28;20210;-73
2023/08/16 05:28:58;;;;;;;15.48;9.82;;;;;;;;;;5029717;28;20193;-72
2023/08/16 05:31:23;;;;;;;17.92;10.07;;;;;;;;;;5023163;28;20747;-72
2023/08/16 05:33:49;;;;;;;17.05;10.35;;;;;;;;;;5028163;28;20194;-72
2023/08/16 05:36:14;;;;;;;14.50;10.65;;;;;;;;;;5006176;28;20201;-72
2023/08/16 05:38:39;;;;;;;17.27;10.82;;;;;;;;;;5029062;28;20194;-73
2023/08/16 05:41:05;;;;;;;14.43;10.63;;;;;;;;;;5026285;28;20252;-72
2023/08/16 05:43:31;;;;;;;13.98;9.68;;;;;;;;;;5017792;28;20228;-72
2023/08/16 05:45:57;;;;;;;13.43;10.05;;;;;;;;;;5016645;28;20209;-72
2023/08/16 05:48:22;;;;;;;14.32;9.25;;;;;;;;;;5029902;28;20268;-72
2023/08/16 05:50:48;;;;;;;15.23;8.88;;;;;;;;;;5017435;28;20272;-72
2023/08/16 05:53:13;;;;;;;13.25;9.13;;;;;;;;;;5029829;28;20196;-73
2023/08/16 05:55:38;;;;;;;13.95;8.63;;;;;;;;;;5015770;28;20650;-72
2023/08/16 05:58:04;;;;;;;14.45;8.25;;;;;;;;;;5027863;28;20273;-72
2023/08/16 06:00:30;;;;;;;14.32;9.02;;;;;;;;;;5029983;28;20552;-72
2023/08/16 06:02:55;;;;;;;10.88;7.95;;;;;;;;;;5028686;28;20649;-72
2023/08/16 06:05:20;;;;;;;17.20;8.57;;;;;;;;;;5027157;28;20265;-72
2023/08/16 06:07:46;;;;;;;11.52;8.05;;;;;;;;;;5028215;28;20269;-72
2023/08/16 06:10:11;;;;;;;13.45;7.90;;;;;;;;;;5026389;28;20225;-74
2023/08/16 06:12:37;;;;;;;15.98;8.05;;;;;;;;;;5028634;28;20209;-72
2023/08/16 06:15:03;;;;;;;15.38;8.45;;;;;;;;;;5024899;28;20311;-72
2023/08/16 06:17:28;;;;;;;11.90;8.18;;;;;;;;;;5027701;28;20232;-72
2023/08/16 06:19:54;;;;;;;12.20;7.88;;;;;;;;;;5016151;28;20643;-72
2023/08/16 06:22:19;;;;;;;12.32;8.63;;;;;;;;;;5020536;28;20190;-72
2023/08/16 06:24:44;;;;;;;13.15;8.10;;;;;;;;;;5020520;28;20271;-72
2023/08/16 06:27:10;;;;;;;13.80;7.18;;;;;;;;;;5029155;28;20197;-72
2023/08/16 06:29:36;;;;;;;11.48;7.88;;;;;;;;;;5029155;28;20186;-72
2023/08/16 06:32:02;;;;;;;14.15;7.75;;;;;;;;;;5019182;28;20207;-72
2023/08/16 06:34:29;;;;;;;11.70;7.45;;;;;;;;;;5009590;28;20508;-72
2023/08/16 06:36:54;;;;;;;12.52;7.72;;;;;;;;;;5033756;28;20197;-72
2023/08/16 06:39:20;;;;;;;11.73;7.25;;;;;;;;;;5024375;28;20190;-73
2023/08/16 06:41:45;;;;;;;13.07;7.15;;;;;;;;;;5020318;28;20190;-72
2023/08/16 06:44:11;;;;;;;13.23;7.60;;;;;;;;;;5023377;28;20227;-72
2023/08/16 06:46:36;;;;;;;17.77;7.68;;;;;;;;;;5013447;28;20194;-72
2023/08/16 06:49:02;;;;;;;12.38;7.07;;;;;;;;;;5023617;28;20272;-73
2023/08/16 06:51:27;;;;;;;11.45;6.72;;;;;;;;;;5028942;28;20264;-72
2023/08/16 06:53:52;;;;;;;10.20;6.78;;;;;;;;;;5027585;28;20182;-73
2023/08/16 06:56:18;;;;;;;11.40;6.95;;;;;;;;;;5019720;28;20232;-72
2023/08/16 06:58:43;;;;;;;16.10;7.22;;;;;;;;;;5027751;28;20268;-72
2023/08/16 07:01:09;;;;;;;14.10;7.68;;;;;;;;;;5028124;28;20194;-72
2023/08/16 07:03:35;;;;;;;11.77;7.07;;;;;;;;;;5027361;28;20512;-72
2023/08/16 07:06:00;;;;;;;14.23;7.05;;;;;;;;;;5017573;28;20663;-72
2023/08/16 07:08:25;;;;;;;11.60;6.47;;;;;;;;;;5025144;28;20190;-72
2023/08/16 07:10:52;;;;;;;12.55;6.70;;;;;;;;;;5028955;28;20719;-73
2023/08/16 07:13:17;;;;;;;14.30;6.93;;;;;;;;;;5027480;28;20212;-73
2023/08/16 07:15:42;;;;;;;13.07;6.88;;;;;;;;;;5025125;28;20186;-72
2023/08/16 07:18:08;;;;;;;8.90;6.22;;;;;;;;;;5007175;28;20211;-72
2023/08/16 07:20:33;;;;;;;15.60;7.10;;;;;;;;;;5027259;28;20187;-72
2023/08/16 07:23:00;;;;;;;10.60;6.40;;;;;;;;;;5029828;28;20190;-72
2023/08/16 07:25:26;;;;;;;13.88;6.60;;;;;;;;;;5031464;28;20276;-72
2023/08/16 07:27:52;;;;;;;13.18;7.00;;;;;;;;;;5032233;28;20212;-72
2023/08/16 07:30:18;;;;;;;10.43;6.57;;;;;;;;;;5004471;28;20182;-72
2023/08/16 07:32:43;;;;;;;9.57;5.95;;;;;;;;;;5038504;28;20661;-72
2023/08/16 07:35:09;;;;;;;10.43;6.30;;;;;;;;;;5038003;28;20190;-73
2023/08/16 07:37:35;;;;;;;9.57;6.30;;;;;;;;;;5030824;28;20196;-72
2023/08/16 07:40:01;;;;;;;15.88;7.07;;;;;;;;;;5030851;28;20657;-73
2023/08/16 07:42:26;;;;;;;11.02;5.93;;;;;;;;;;5032482;28;20209;-72
2023/08/16 07:44:52;;;;;;;11.68;5.93;;;;;;;;;;5031036;28;20190;-72
2023/08/16 07:47:18;;;;;;;7.30;5.25;;;;;;;;;;5030319;28;20609;-73
2023/08/16 07:49:43;;;;;;;9.40;5.43;;;;;;;;;;5017993;28;20313;-73
2023/08/16 07:52:09;;;;;;;9.15;5.60;;;;;;;;;;5028721;28;20700;-73
2023/08/16 07:54:34;;;;;;;8.68;4.65;;;;;;;;;;5031823;28;20671;-72
2023/08/16 07:57:00;;;;;;;7.53;4.50;;;;;;;;;;5031964;28;20624;-71
2023/08/16 07:59:26;;;;;;;6.72;4.65;;;;;;;;;;5011582;28;20586;-72
2023/08/16 08:01:52;;;;;;;8.32;4.15;;;;;;;;;;5031310;28;20193;-73
2023/08/16 08:04:18;;;;;;;6.53;4.35;;;;;;;;;;5031276;28;20200;-72
2023/08/16 08:06:44;;;;;;;13.32;4.45;;;;;;;;;;5021441;28;20657;-72
2023/08/16 08:09:09;;;;;;;9.18;4.10;;;;;;;;;;5010554;28;20258;-72
2023/08/16 08:11:37;;;;;;;6.45;3.92;;;;;;;;;;5025662;28;20224;-72
2023/08/16 08:14:02;;;;;;;8.40;3.53;;;;;;;;;;5030732;28;20178;-73
2023/08/16 08:16:28;;;;;;;6.20;4.18;;;;;;;;;;5015927;28;20191;-72
2023/08/16 08:18:54;;;;;;;5.88;4.32;;;;;;;;;;5029969;28;20280;-72
2023/08/16 08:21:19;;;;;;;6.63;3.85;;;;;;;;;;5024256;28;20190;-72
2023/08/16 08:23:44;;;;;;;6.47;4.20;;;;;;;;;;5029029;28;20189;-73
2023/08/16 08:26:10;;;;;;;7.28;4.70;;;;;;;;;;5025131;28;20233;-71
2023/08/16 08:28:36;;;;;;;8.82;4.35;;;;;;;;;;5027778;28;20205;-72
2023/08/16 08:31:03;;;;;;;12.32;5.18;;;;;;;;;;5033413;28;20707;-71
2023/08/16 08:33:29;;;;;;;9.07;5.20;;;;;;;;;;5026672;28;20205;-73
2023/08/16 08:35:55;;;;;;;8.85;5.85;;;;;;;;;;5025594;28;20240;-72
2023/08/16 08:38:22;;;;;;;7.70;4.45;;;;;;;;;;4993947;28;20187;-72
2023/08/16 08:40:47;;;;;;;8.52;4.55;;;;;;;;;;5027185;28;20182;-72
2023/08/16 08:43:18;;;;;;;9.18;5.13;;;;;;;;;;5030166;28;20347;-72
2023/08/16 08:45:46;;;;;;;9.05;4.72;;;;;;;;;;5028570;28;20296;-72
2023/08/16 08:48:12;;;;;;;6.47;4.28;;;;;;;;;;5029657;28;20190;-72
2023/08/16 08:50:39;;;;;;;7.07;4.72;;;;;;;;;;5030909;28;20190;-72
2023/08/16 08:53:04;;;;;;;11.48;4.70;;;;;;;;;;5030432;28;20182;-72
2023/08/16 08:55:32;;;;;;;7.55;4.65;;;;;;;;;;5018487;28;20621;-72
2023/08/16 08:58:01;;;;;;;7.43;4.15;;;;;;;;;;5027228;28;20185;-72
2023/08/16 09:00:30;;;;;;;5.03;3.50;;;;;;;;;;5031325;28;20212;-72
2023/08/16 09:02:57;;;;;;;8.10;3.45;;;;;;;;;;5027364;28;20190;-72
2023/08/16 09:05:23;;;;;;;6.18;3.55;;;;;;;;;;5031235;28;20178;-71
2023/08/16 09:07:48;;;;;;;8.13;3.63;;;;;;;;;;5030615;28;20569;-71
2023/08/16 09:10:15;;;;;;;5.30;3.10;;;;;;;;;;5029672;28;20245;-71
2023/08/16 09:12:41;;;;;;;4.22;2.72;;;;;;;;;;5027272;28;20210;-71
2023/08/16 09:15:07;;;;;;;4.97;2.72;;;;;;;;;;5029929;28;20197;-72
2023/08/16 09:17:33;;;;;;;5.18;3.10;;;;;;;;;;5023444;28;20250;-72
2023/08/16 09:20:05;;;;;;;5.40;3.10;;;;;;;;;;5028113;28;20194;-72
2023/08/16 09:22:31;;;;;;;4.78;2.35;;;;;;;;;;5021235;28;20226;-72
2023/08/16 09:24:58;;;;;;;6.47;3.15;;;;;;;;;;5033893;28;20714;-72
2023/08/16 09:27:25;;;;;;;6.32;2.70;;;;;;;;;;5022334;28;20187;-72
2023/08/16 09:29:56;;;;;;;5.13;2.70;;;;;;;;;;5023885;28;20606;-72
2023/08/16 09:32:22;;;;;;;5.53;3.17;;;;;;;;;;5022869;28;20555;-72
2023/08/16 09:34:48;;;;;;;5.80;2.50;;;;;;;;;;5029752;28;20197;-73
2023/08/16 09:37:17;;;;;;;5.88;2.30;;;;;;;;;;5020729;28;20292;-72
2023/08/16 09:39:42;;;;;;;4.63;2.40;;;;;;;;;;5029604;28;20205;-72
2023/08/16 09:42:11;;;;;;;6.72;2.25;;;;;;;;;;5019662;28;20183;-72
2023/08/16 09:44:37;;;;;;;3.15;1.83;;;;;;;;;;5008362;28;20261;-72
2023/08/16 09:47:13;;;;;;;6.53;2.17;;;;;;;;;;5000880;28;20191;-72
2023/08/16 09:49:39;;;;;;;4.22;2.10;;;;;;;;;;5008575;28;20638;-71
2023/08/16 09:52:10;;;;;;;3.55;2.05;;;;;;;;;;5009504;28;20215;-72
2023/08/16 09:54:36;;;;;;;5.30;2.30;;;;;;;;;;5009699;28;20245;-71
2023/08/16 09:57:01;;;;;;;5.55;1.98;;;;;;;;;;5001567;28;20183;-72
2023/08/16 09:59:28;;;;;;;4.57;1.92;;;;;;;;;;5004918;28;20199;-71
2023/08/16 10:01:54;;;;;;;4.30;2.13;;;;;;;;;;5008001;28;20186;-72
2023/08/16 10:04:20;;;;;;;3.38;1.90;;;;;;;;;;5010832;28;20290;-72
2023/08/16 10:06:46;;;;;;;3.63;1.60;;;;;;;;;;4993479;28;20249;-71
2023/08/16 10:09:12;;;;;;;5.03;2.05;;;;;;;;;;5000533;28;20270;-72
2023/08/16 10:11:39;;;;;;;2.78;2.05;;;;;;;;;;5010156;28;20211;-72
2023/08/16 10:14:06;;;;;;;2.33;1.70;;;;;;;;;;5010905;28;20658;-72
2023/08/16 10:16:34;;;;;;;5.78;2.00;;;;;;;;;;5010754;28;20189;-71
2023/08/16 10:19:01;;;;;;;3.55;1.90;;;;;;;;;;4997379;28;20550;-72
2023/08/16 10:21:28;;;;;;;5.65;2.13;;;;;;;;;;5003232;28;20562;-72
2023/08/16 10:23:56;;;;;;;2.95;2.00;;;;;;;;;;5008286;28;20194;-71
2023/08/16 10:26:24;;;;;;;3.92;1.60;;;;;;;;;;5001991;28;20292;-72
2023/08/16 10:28:54;;;;;;;3.88;2.20;;;;;;;;;;5008110;28;20193;-71
2023/08/16 10:31:25;;;;;;;3.38;1.52;;;;;;;;;;5013576;28;20242;-72
2023/08/16 10:33:53;;;;;;;3.17;1.52;;;;;;;;;;5007332;28;20191;-72
2023/08/16 10:36:19;;;;;;;2.17;1.38;;;;;;;;;;5009581;28;20232;-72
2023/08/16 10:38:53;;;;;;;2.35;1.70;;;;;;;;;;5004555;28;20203;-72
2023/08/16 10:41:20;;;;;;;4.07;1.80;;;;;;;;;;5010206;28;20185;-72
2023/08/16 10:43:47;;;;;;;3.78;1.90;;;;;;;;;;5021408;28;20695;-72
2023/08/16 10:46:23;;;;;;;5.28;1.52;;;;;;;;;;5029900;28;20217;-72
2023/08/16 10:48:55;;;;;;;7.13;1.42;;;;;;;;;;5030618;28;20209;-72
2023/08/16 10:51:21;;;;;;;2.70;1.40;;;;;;;;;;5029533;28;20297;-72
2023/08/16 10:53:46;;;;;;;4.45;1.60;;;;;;;;;;5029745;28;20267;-71
2023/08/16 10:56:11;;;;;;;2.22;1.33;;;;;;;;;;5016275;28;20645;-72
2023/08/16 10:58:47;;;;;;;4.65;1.48;;;;;;;;;;5026079;28;20685;-72
2023/08/16 11:01:13;;;;;;;3.17;1.60;;;;;;;;;;5032193;28;20608;-71
2023/08/16 11:03:40;;;;;;;5.47;2.15;;;;;;;;;;5022862;28;20283;-72
2023/08/16 11:06:10;;;;;;;5.80;1.80;;;;;;;;;;5013283;28;20663;-72
2023/08/16 11:08:44;;;;;;;6.00;2.20;;;;;;;;;;5017015;28;20190;-70
2023/08/16 11:11:12;;;;;;;3.63;1.55;;;;;;;;;;5033990;28;20246;-71
2023/08/16 11:13:40;;;;;;;8.18;1.50;;;;;;;;;;5015430;28;20685;-70
2023/08/16 11:16:09;;;;;;;2.55;1.55;;;;;;;;;;5017296;28;20534;-72
2023/08/16 11:18:35;;;;;;;5.53;2.00;;;;;;;;;;5037129;28;20291;-71
2023/08/16 11:21:01;;;;;;;3.78;2.03;;;;;;;;;;5024295;28;20194;-73
2023/08/16 11:23:34;;;;;;;3.50;1.63;;;;;;;;;;5028546;28;20194;-73
2023/08/16 11:26:01;;;;;;;4.20;1.55;;;;;;;;;;5016555;28;20196;-73
2023/08/16 11:28:27;;;;;;;2.25;1.20;;;;;;;;;;5031741;28;20205;-72
2023/08/16 11:30:57;;;;;;;3.05;1.75;;;;;;;;;;5031179;28;20264;-72
2023/08/16 11:33:22;;;;;;;5.45;1.65;;;;;;;;;;5034048;28;20680;-72
2023/08/16 11:35:48;;;;;;;5.50;1.40;;;;;;;;;;5017765;28;20217;-72
2023/08/16 11:38:16;;;;;;;3.55;1.30;;;;;;;;;;5033164;28;20190;-72
2023/08/16 11:40:47;;;;;;;3.78;1.25;;;;;;;;;;5031143;28;20194;-72
2023/08/16 11:43:13;;;;;;;3.60;1.25;;;;;;;;;;5029444;28;20311;-73
2023/08/16 11:45:38;;;;;;;2.90;1.67;;;;;;;;;;5030587;28;20278;-72
2023/08/16 11:48:04;;;;;;;3.97;1.20;;;;;;;;;;5013042;28;20380;-76
2023/08/16 11:50:33;;;;;;;2.80;1.33;;;;;;;;;;5015150;28;20201;-72
2023/08/16 11:53:05;;;;;;;5.10;1.40;;;;;;;;;;5027147;28;20524;-73
2023/08/16 11:55:30;;;;;;;3.22;1.50;;;;;;;;;;5033101;28;20198;-73
2023/08/16 11:58:08;;;;;;;2.40;1.40;;;;;;;;;;5029761;28;20193;-75
2023/08/16 12:00:35;;;;;;;5.95;1.52;;;;;;;;;;5029115;28;20649;-72
2023/08/16 12:03:03;;;;;;;3.72;1.50;;;;;;;;;;5032283;28;20190;-73
2023/08/16 12:05:36;;;;;;;4.97;1.60;;;;;;;;;;5033304;28;20269;-73
2023/08/16 12:08:06;;;;;;;4.88;1.60;;;;;;;;;;5028169;28;20221;-72
2023/08/16 12:10:33;;;;;;;4.30;1.58;;;;;;;;;;5017245;28;20269;-73
2023/08/16 12:13:09;;;;;;;5.05;1.45;;;;;;;;;;5021984;28;20256;-72
2023/08/16 12:15:34;;;;;;;6.07;1.70;;;;;;;;;;5043145;28;20189;-71
2023/08/16 12:18:00;;;;;;;5.53;1.52;;;;;;;;;;5014435;28;20671;-71
2023/08/16 12:20:25;;;;;;;3.72;1.70;;;;;;;;;;5029906;28;20178;-72
2023/08/16 12:22:52;;;;;;;4.97;1.65;;;;;;;;;;5027904;28;20231;-72
2023/08/16 12:25:18;;;;;;;3.38;1.30;;;;;;;;;;5019119;28;20222;-72
2023/08/16 12:27:43;;;;;;;3.80;1.77;;;;;;;;;;5001579;28;20650;-72
2023/08/16 12:30:09;;;;;;;4.30;1.30;;;;;;;;;;5020576;28;20237;-72
2023/08/16 12:32:35;;;;;;;1.90;1.20;;;;;;;;;;5040396;28;20207;-72
2023/08/16 12:35:00;;;;;;;4.60;1.75;;;;;;;;;;5022596;28;20247;-72
2023/08/16 12:37:26;;;;;;;3.60;1.40;;;;;;;;;;5030912;28;20263;-73
2023/08/16 12:39:51;;;;;;;5.97;2.00;;;;;;;;;;5021815;28;20277;-71
2023/08/16 12:42:16;;;;;;;4.28;1.80;;;;;;;;;;5024426;28;20189;-73
2023/08/16 12:44:42;;;;;;;3.22;1.70;;;;;;;;;;5018362;28;20216;-72
2023/08/16 12:47:07;;;;;;;2.10;1.10;;;;;;;;;;5028787;28;20955;-72
2023/08/16 12:49:33;;;;;;;3.38;1.13;;;;;;;;;;5034911;28;20190;-73
2023/08/16 12:51:58;;;;;;;2.15;1.10;;;;;;;;;;5030204;28;20209;-71
2023/08/16 12:54:23;;;;;;;3.45;1.20;;;;;;;;;;5027457;28;20225;-71
2023/08/16 12:56:49;;;;;;;3.63;1.10;;;;;;;;;;5019543;28;20194;-72
2023/08/16 12:59:14;;;;;;;2.53;1.20;;;;;;;;;;5030233;28;20249;-72
2023/08/16 13:01:40;;;;;;;4.00;1.00;;;;;;;;;;5031680;28;20182;-71
2023/08/16 13:04:05;;;;;;;4.47;1.27;;;;;;;;;;5026862;28;20677;-71
2023/08/16 13:06:31;;;;;;;2.30;1.48;;;;;;;;;;5011026;28;20285;-72
2023/08/16 13:08:56;;;;;;;2.60;1.00;;;;;;;;;;5022808;28;20198;-72
2023/08/16 13:11:21;;;;;;;2.17;0.98;;;;;;;;;;5033391;28;20221;-72
2023/08/16 13:13:47;;;;;;;2.13;0.90;;;;;;;;;;5024327;28;20194;-71
2023/08/16 13:16:12;;;;;;;2.60;0.90;;;;;;;;;;5031163;28;20182;-71
2023/08/16 13:18:39;;;;;;;2.85;1.00;;;;;;;;;;5023059;28;20213;-70
2023/08/16 13:21:05;;;;;;;2.78;1.00;;;;;;;;;;5030980;28;20300;-72
2023/08/16 13:23:31;;;;;;;1.98;0.95;;;;;;;;;;5030681;28;20209;-72
2023/08/16 13:25:57;;;;;;;3.70;0.90;;;;;;;;;;5030882;28;20617;-72
2023/08/16 13:28:23;;;;;;;2.58;1.45;;;;;;;;;;5024866;28;20187;-75
2023/08/16 13:30:48;;;;;;;2.10;0.98;;;;;;;;;;5012380;28;20191;-73
2023/08/16 13:33:14;;;;;;;4.20;1.10;;;;;;;;;;5030892;28;20191;-72
2023/08/16 13:35:44;;;;;;;2.45;0.98;;;;;;;;;;5030545;28;20555;-73
2023/08/16 13:38:09;;;;;;;2.85;1.20;;;;;;;;;;5023679;28;20183;-74
2023/08/16 13:40:36;;;;;;;1.85;0.90;;;;;;;;;;4995333;28;20186;-72
2023/08/16 13:43:01;;;;;;;3.47;1.35;;;;;;;;;;5028861;28;20230;-73
2023/08/16 13:45:29;;;;;;;1.15;0.68;;;;;;;;;;5031317;28;20194;-72
2023/08/16 13:47:55;;;;;;;2.72;0.90;;;;;;;;;;5023375;28;20665;-72
2023/08/16 13:50:20;;;;;;;5.50;1.05;;;;;;;;;;5021312;28;20625;-72
2023/08/16 13:52:46;;;;;;;1.85;0.85;;;;;;;;;;5022150;28;20258;-72
2023/08/16 13:55:13;;;;;;;1.50;0.90;;;;;;;;;;5031286;28;20190;-72
2023/08/16 13:57:39;;;;;;;2.92;0.90;;;;;;;;;;5029241;28;20587;-73
2023/08/16 14:00:07;;;;;;;1.90;0.73;;;;;;;;;;5031053;28;20260;-72
2023/08/16 14:02:33;;;;;;;3.03;0.80;;;;;;;;;;5030410;28;20186;-72
2023/08/16 14:04:59;;;;;;;2.75;0.70;;;;;;;;;;5029100;28;20204;-72
2023/08/16 14:07:24;;;;;;;3.72;0.90;;;;;;;;;;5034902;28;20198;-72
2023/08/16 14:09:52;;;;;;;4.93;0.88;;;;;;;;;;5020073;28;20262;-73
2023/08/16 14:12:18;;;;;;;2.67;0.95;;;;;;;;;;5028611;28;20214;-72
2023/08/16 14:14:43;;;;;;;3.67;0.98;;;;;;;;;;5031581;28;20548;-72
2023/08/16 14:17:09;;;;;;;2.30;1.20;;;;;;;;;;5030138;28;20288;-73
2023/08/16 14:19:34;;;;;;;4.60;1.13;;;;;;;;;;5030334;28;20198;-72
2023/08/16 14:21:59;;;;;;;2.30;1.13;;;;;;;;;;5029351;28;20342;-72
2023/08/16 14:24:25;;;;;;;2.38;1.20;;;;;;;;;;5021077;28;20210;-72
2023/08/16 14:26:51;;;;;;;2.53;1.00;;;;;;;;;;5025172;28;20595;-73
2023/08/16 14:29:16;;;;;;;2.58;1.05;;;;;;;;;;5030750;28;20190;-72
2023/08/16 14:31:42;;;;;;;2.05;1.10;;;;;;;;;;5033846;28;20210;-72
2023/08/16 14:34:07;;;;;;;4.57;1.10;;;;;;;;;;5027610;28;20213;-72